sensor_id;sensor_type;location;lat;lon;timestamp;P1;durP1;ratioP1;P2;durP2;ratioP2
65613;SDS011;52283;49.292;10.572;2024-02-04T00:01:16;1.27;;;0.93;;
65613;SDS011;52283;49.292;10.572;2024-02-04T00:03:43;0.73;;;0.65;;
65613;SDS011;52283;49.292;10.572;2024-02-04T00:06:10;0.82;;;0.82;;
65613;SDS011;52283;49.292;10.572;2024-02-04T00:08:36;1.58;;;0.70;;
65613;SDS011;52283;49.292;10.572;2024-02-04T00:11:03;2.72;;;0.90;;
65613;SDS011;52283;49.292;10.572;2024-02-04T00:13:29;1.33;;;1.00;;
65613;SDS011;52283;49.292;10.572;2024-02-04T00:15:56;0.63;;;0.63;;
65613;SDS011;52283;49.292;10.572;2024-02-04T00:18:23;0.80;;;0.80;;
65613;SDS011;52283;49.292;10.572;2024-02-04T00:20:52;1.08;;;0.90;;
65613;SDS011;52283;49.292;10.572;2024-02-04T00:23:18;1.13;;;0.85;;
65613;SDS011;52283;49.292;10.572;2024-02-04T00:25:45;0.80;;;0.80;;
65613;SDS011;52283;49.292;10.572;2024-02-04T00:28:11;0.88;;;0.88;;
65613;SDS011;52283;49.292;10.572;2024-02-04T00:30:38;1.63;;;0.98;;
65613;SDS011;52283;49.292;10.572;2024-02-04T00:33:04;1.38;;;1.02;;
65613;SDS011;52283;49.292;10.572;2024-02-04T00:35:31;2.90;;;1.33;;
65613;SDS011;52283;49.292;10.572;2024-02-04T00:37:59;1.30;;;1.05;;
65613;SDS011;52283;49.292;10.572;2024-02-04T00:40:25;1.30;;;0.90;;
65613;SDS011;52283;49.292;10.572;2024-02-04T00:42:52;1.60;;;1.50;;
65613;SDS011;52283;49.292;10.572;2024-02-04T00:45:19;2.45;;;1.40;;
65613;SDS011;52283;49.292;10.572;2024-02-04T00:47:45;1.30;;;1.20;;
65613;SDS011;52283;49.292;10.572;2024-02-04T00:50:12;2.03;;;1.15;;
65613;SDS011;52283;49.292;10.572;2024-02-04T00:52:38;1.83;;;1.67;;
65613;SDS011;52283;49.292;10.572;2024-02-04T00:55:06;2.05;;;1.27;;
65613;SDS011;52283;49.292;10.572;2024-02-04T00:57:33;1.60;;;1.40;;
65613;SDS011;52283;49.292;10.572;2024-02-04T01:00:00;2.15;;;1.48;;
65613;SDS011;52283;49.292;10.572;2024-02-04T01:02:27;2.25;;;1.98;;
65613;SDS011;52283;49.292;10.572;2024-02-04T01:04:53;2.83;;;2.08;;
65613;SDS011;52283;49.292;10.572;2024-02-04T01:07:20;2.50;;;1.83;;
65613;SDS011;52283;49.292;10.572;2024-02-04T01:09:46;4.65;;;1.70;;
65613;SDS011;52283;49.292;10.572;2024-02-04T01:12:14;4.53;;;2.20;;
65613;SDS011;52283;49.292;10.572;2024-02-04T01:14:41;2.80;;;1.48;;
65613;SDS011;52283;49.292;10.572;2024-02-04T01:17:07;2.30;;;1.90;;
65613;SDS011;52283;49.292;10.572;2024-02-04T01:19:34;2.28;;;1.95;;
65613;SDS011;52283;49.292;10.572;2024-02-04T01:22:00;1.73;;;1.38;;
65613;SDS011;52283;49.292;10.572;2024-02-04T01:24:27;1.95;;;1.75;;
65613;SDS011;52283;49.292;10.572;2024-02-04T01:26:53;1.33;;;1.23;;
65613;SDS011;52283;49.292;10.572;2024-02-04T01:29:21;2.22;;;1.23;;
65613;SDS011;52283;49.292;10.572;2024-02-04T01:31:47;2.45;;;1.42;;
65613;SDS011;52283;49.292;10.572;2024-02-04T01:34:14;1.17;;;1.08;;
65613;SDS011;52283;49.292;10.572;2024-02-04T01:36:40;2.00;;;1.85;;
65613;SDS011;52283;49.292;10.572;2024-02-04T01:39:07;3.03;;;1.15;;
65613;SDS011;52283;49.292;10.572;2024-02-04T01:41:33;1.85;;;1.30;;
65613;SDS011;52283;49.292;10.572;2024-02-04T01:44:00;1.38;;;1.13;;
65613;SDS011;52283;49.292;10.572;2024-02-04T01:46:28;1.85;;;1.52;;
65613;SDS011;52283;49.292;10.572;2024-02-04T01:48:54;2.38;;;1.40;;
65613;SDS011;52283;49.292;10.572;2024-02-04T01:51:21;3.85;;;1.85;;
65613;SDS011;52283;49.292;10.572;2024-02-04T01:53:48;1.38;;;1.17;;
65613;SDS011;52283;49.292;10.572;2024-02-04T01:56:16;1.95;;;1.30;;
65613;SDS011;52283;49.292;10.572;2024-02-04T01:58:43;3.75;;;1.50;;
65613;SDS011;52283;49.292;10.572;2024-02-04T02:01:09;1.83;;;1.30;;
65613;SDS011;52283;49.292;10.572;2024-02-04T02:03:38;1.60;;;1.50;;
65613;SDS011;52283;49.292;10.572;2024-02-04T02:06:04;1.52;;;1.33;;
65613;SDS011;52283;49.292;10.572;2024-02-04T02:08:31;2.08;;;1.77;;
65613;SDS011;52283;49.292;10.572;2024-02-04T02:11:02;2.28;;;1.88;;
65613;SDS011;52283;49.292;10.572;2024-02-04T02:13:32;2.30;;;1.98;;
65613;SDS011;52283;49.292;10.572;2024-02-04T02:16:02;3.08;;;2.45;;
65613;SDS011;52283;49.292;10.572;2024-02-04T02:18:35;3.92;;;2.58;;
65613;SDS011;52283;49.292;10.572;2024-02-04T02:21:20;6.28;;;2.28;;
65613;SDS011;52283;49.292;10.572;2024-02-04T02:24:03;3.28;;;2.53;;
65613;SDS011;52283;49.292;10.572;2024-02-04T02:26:33;3.40;;;3.03;;
65613;SDS011;52283;49.292;10.572;2024-02-04T02:31:30;3.35;;;2.40;;
65613;SDS011;52283;49.292;10.572;2024-02-04T02:33:56;4.63;;;2.85;;
65613;SDS011;52283;49.292;10.572;2024-02-04T02:36:23;4.15;;;2.65;;
65613;SDS011;52283;49.292;10.572;2024-02-04T02:38:54;2.88;;;2.67;;
65613;SDS011;52283;49.292;10.572;2024-02-04T02:41:30;3.67;;;2.55;;
65613;SDS011;52283;49.292;10.572;2024-02-04T02:44:00;3.05;;;1.80;;
65613;SDS011;52283;49.292;10.572;2024-02-04T02:46:29;3.13;;;2.53;;
65613;SDS011;52283;49.292;10.572;2024-02-04T02:48:55;3.78;;;2.22;;
65613;SDS011;52283;49.292;10.572;2024-02-04T02:51:23;3.25;;;2.08;;
65613;SDS011;52283;49.292;10.572;2024-02-04T02:53:49;3.28;;;2.25;;
65613;SDS011;52283;49.292;10.572;2024-02-04T02:56:16;2.17;;;1.80;;
65613;SDS011;52283;49.292;10.572;2024-02-04T02:58:43;2.85;;;2.55;;
65613;SDS011;52283;49.292;10.572;2024-02-04T03:01:10;3.83;;;2.05;;
65613;SDS011;52283;49.292;10.572;2024-02-04T03:03:36;2.25;;;2.05;;
65613;SDS011;52283;49.292;10.572;2024-02-04T03:06:03;2.78;;;1.63;;
65613;SDS011;52283;49.292;10.572;2024-02-04T03:08:29;1.60;;;1.42;;
65613;SDS011;52283;49.292;10.572;2024-02-04T03:10:56;4.15;;;1.60;;
65613;SDS011;52283;49.292;10.572;2024-02-04T03:13:22;2.22;;;1.38;;
65613;SDS011;52283;49.292;10.572;2024-02-04T03:15:50;2.42;;;1.73;;
65613;SDS011;52283;49.292;10.572;2024-02-04T03:18:17;1.40;;;1.10;;
65613;SDS011;52283;49.292;10.572;2024-02-04T03:20:43;3.08;;;1.63;;
65613;SDS011;52283;49.292;10.572;2024-02-04T03:23:09;2.58;;;2.35;;
65613;SDS011;52283;49.292;10.572;2024-02-04T03:25:36;1.52;;;1.30;;
65613;SDS011;52283;49.292;10.572;2024-02-04T03:28:03;3.05;;;1.75;;
65613;SDS011;52283;49.292;10.572;2024-02-04T03:30:30;2.72;;;1.30;;
65613;SDS011;52283;49.292;10.572;2024-02-04T03:32:57;2.72;;;1.98;;
65613;SDS011;52283;49.292;10.572;2024-02-04T03:35:24;1.30;;;1.10;;
65613;SDS011;52283;49.292;10.572;2024-02-04T03:37:50;1.58;;;1.45;;
65613;SDS011;52283;49.292;10.572;2024-02-04T03:40:17;3.50;;;1.75;;
65613;SDS011;52283;49.292;10.572;2024-02-04T03:42:44;2.50;;;1.70;;
65613;SDS011;52283;49.292;10.572;2024-02-04T03:45:11;1.83;;;1.25;;
65613;SDS011;52283;49.292;10.572;2024-02-04T03:47:37;2.90;;;1.73;;
65613;SDS011;52283;49.292;10.572;2024-02-04T03:50:05;2.55;;;1.80;;
65613;SDS011;52283;49.292;10.572;2024-02-04T03:52:32;2.78;;;1.70;;
65613;SDS011;52283;49.292;10.572;2024-02-04T03:54:58;2.83;;;2.13;;
65613;SDS011;52283;49.292;10.572;2024-02-04T03:57:25;3.33;;;2.05;;
65613;SDS011;52283;49.292;10.572;2024-02-04T03:59:51;2.75;;;2.20;;
65613;SDS011;52283;49.292;10.572;2024-02-04T04:02:18;2.22;;;1.92;;
65613;SDS011;52283;49.292;10.572;2024-02-04T04:04:44;2.05;;;1.52;;
65613;SDS011;52283;49.292;10.572;2024-02-04T04:07:14;1.80;;;1.40;;
65613;SDS011;52283;49.292;10.572;2024-02-04T04:09:40;2.10;;;1.90;;
65613;SDS011;52283;49.292;10.572;2024-02-04T04:12:06;2.75;;;2.08;;
65613;SDS011;52283;49.292;10.572;2024-02-04T04:14:33;2.40;;;1.70;;
65613;SDS011;52283;49.292;10.572;2024-02-04T04:16:59;2.63;;;1.40;;
65613;SDS011;52283;49.292;10.572;2024-02-04T04:19:26;4.05;;;1.52;;
65613;SDS011;52283;49.292;10.572;2024-02-04T04:21:52;1.70;;;1.42;;
65613;SDS011;52283;49.292;10.572;2024-02-04T04:24:21;1.80;;;1.48;;
65613;SDS011;52283;49.292;10.572;2024-02-04T04:26:47;1.63;;;1.15;;
65613;SDS011;52283;49.292;10.572;2024-02-04T04:29:14;3.78;;;1.67;;
65613;SDS011;52283;49.292;10.572;2024-02-04T04:31:40;2.10;;;1.90;;
65613;SDS011;52283;49.292;10.572;2024-02-04T04:34:07;1.75;;;1.45;;
65613;SDS011;52283;49.292;10.572;2024-02-04T04:36:33;1.88;;;1.20;;
65613;SDS011;52283;49.292;10.572;2024-02-04T04:39:00;1.77;;;1.42;;
65613;SDS011;52283;49.292;10.572;2024-02-04T04:41:27;1.90;;;1.42;;
65613;SDS011;52283;49.292;10.572;2024-02-04T04:43:54;1.48;;;1.30;;
65613;SDS011;52283;49.292;10.572;2024-02-04T04:46:20;1.17;;;0.90;;
65613;SDS011;52283;49.292;10.572;2024-02-04T04:48:47;1.33;;;1.08;;
65613;SDS011;52283;49.292;10.572;2024-02-04T04:51:13;1.27;;;1.13;;
65613;SDS011;52283;49.292;10.572;2024-02-04T04:53:40;1.20;;;0.80;;
65613;SDS011;52283;49.292;10.572;2024-02-04T04:56:06;1.20;;;0.95;;
65613;SDS011;52283;49.292;10.572;2024-02-04T04:58:36;1.40;;;0.88;;
65613;SDS011;52283;49.292;10.572;2024-02-04T05:01:02;0.90;;;0.70;;
65613;SDS011;52283;49.292;10.572;2024-02-04T05:03:31;1.98;;;1.05;;
65613;SDS011;52283;49.292;10.572;2024-02-04T05:05:57;0.73;;;0.73;;
65613;SDS011;52283;49.292;10.572;2024-02-04T05:08:26;1.42;;;0.70;;
65613;SDS011;52283;49.292;10.572;2024-02-04T05:10:52;0.70;;;0.70;;
65613;SDS011;52283;49.292;10.572;2024-02-04T05:13:19;0.75;;;0.70;;
65613;SDS011;52283;49.292;10.572;2024-02-04T05:15:46;0.85;;;0.60;;
65613;SDS011;52283;49.292;10.572;2024-02-04T05:18:13;0.70;;;0.57;;
65613;SDS011;52283;49.292;10.572;2024-02-04T05:20:39;1.38;;;0.70;;
65613;SDS011;52283;49.292;10.572;2024-02-04T05:23:06;0.60;;;0.60;;
65613;SDS011;52283;49.292;10.572;2024-02-04T05:25:33;0.57;;;0.55;;
65613;SDS011;52283;49.292;10.572;2024-02-04T05:27:59;0.57;;;0.40;;
65613;SDS011;52283;49.292;10.572;2024-02-04T05:30:25;1.55;;;0.50;;
65613;SDS011;52283;49.292;10.572;2024-02-04T05:32:53;1.70;;;0.50;;
65613;SDS011;52283;49.292;10.572;2024-02-04T05:35:20;1.73;;;0.80;;
65613;SDS011;52283;49.292;10.572;2024-02-04T05:37:46;0.50;;;0.50;;
65613;SDS011;52283;49.292;10.572;2024-02-04T05:40:13;2.83;;;0.55;;
65613;SDS011;52283;49.292;10.572;2024-02-04T05:42:42;1.38;;;0.80;;
65613;SDS011;52283;49.292;10.572;2024-02-04T05:45:08;1.10;;;0.80;;
65613;SDS011;52283;49.292;10.572;2024-02-04T05:47:35;1.23;;;0.90;;
65613;SDS011;52283;49.292;10.572;2024-02-04T05:50:03;0.80;;;0.80;;
65613;SDS011;52283;49.292;10.572;2024-02-04T05:52:30;1.40;;;0.85;;
65613;SDS011;52283;49.292;10.572;2024-02-04T05:54:57;1.38;;;1.00;;
65613;SDS011;52283;49.292;10.572;2024-02-04T05:57:23;3.42;;;0.90;;
65613;SDS011;52283;49.292;10.572;2024-02-04T05:59:50;1.40;;;1.10;;
65613;SDS011;52283;49.292;10.572;2024-02-04T06:02:17;0.80;;;0.70;;
65613;SDS011;52283;49.292;10.572;2024-02-04T06:04:44;1.00;;;0.90;;
65613;SDS011;52283;49.292;10.572;2024-02-04T06:07:13;0.73;;;0.73;;
65613;SDS011;52283;49.292;10.572;2024-02-04T06:09:39;0.77;;;0.68;;
65613;SDS011;52283;49.292;10.572;2024-02-04T06:12:06;1.13;;;0.70;;
65613;SDS011;52283;49.292;10.572;2024-02-04T06:14:33;0.60;;;0.60;;
65613;SDS011;52283;49.292;10.572;2024-02-04T06:17:00;0.50;;;0.50;;
65613;SDS011;52283;49.292;10.572;2024-02-04T06:19:26;0.93;;;0.75;;
65613;SDS011;52283;49.292;10.572;2024-02-04T06:21:52;0.40;;;0.40;;
65613;SDS011;52283;49.292;10.572;2024-02-04T06:24:20;0.35;;;0.35;;
65613;SDS011;52283;49.292;10.572;2024-02-04T06:26:47;0.40;;;0.40;;
65613;SDS011;52283;49.292;10.572;2024-02-04T06:29:13;0.30;;;0.30;;
65613;SDS011;52283;49.292;10.572;2024-02-04T06:31:43;0.32;;;0.25;;
65613;SDS011;52283;49.292;10.572;2024-02-04T06:34:10;1.33;;;0.30;;
65613;SDS011;52283;49.292;10.572;2024-02-04T06:36:37;2.13;;;1.10;;
65613;SDS011;52283;49.292;10.572;2024-02-04T06:39:03;1.75;;;0.38;;
65613;SDS011;52283;49.292;10.572;2024-02-04T06:41:33;0.43;;;0.35;;
65613;SDS011;52283;49.292;10.572;2024-02-04T06:44:00;1.65;;;0.55;;
65613;SDS011;52283;49.292;10.572;2024-02-04T06:46:26;0.30;;;0.30;;
65613;SDS011;52283;49.292;10.572;2024-02-04T06:48:53;0.40;;;0.40;;
65613;SDS011;52283;49.292;10.572;2024-02-04T06:51:20;1.27;;;0.20;;
65613;SDS011;52283;49.292;10.572;2024-02-04T06:53:46;0.25;;;0.15;;
65613;SDS011;52283;49.292;10.572;2024-02-04T06:56:13;0.30;;;0.30;;
65613;SDS011;52283;49.292;10.572;2024-02-04T06:58:41;1.05;;;0.40;;
65613;SDS011;52283;49.292;10.572;2024-02-04T07:01:08;1.20;;;0.30;;
65613;SDS011;52283;49.292;10.572;2024-02-04T07:03:34;0.10;;;0.10;;
65613;SDS011;52283;49.292;10.572;2024-02-04T07:06:01;0.20;;;0.20;;
65613;SDS011;52283;49.292;10.572;2024-02-04T07:08:27;1.40;;;0.20;;
65613;SDS011;52283;49.292;10.572;2024-02-04T07:10:54;0.25;;;0.25;;
65613;SDS011;52283;49.292;10.572;2024-02-04T07:13:20;0.30;;;0.30;;
65613;SDS011;52283;49.292;10.572;2024-02-04T07:15:48;0.30;;;0.30;;
65613;SDS011;52283;49.292;10.572;2024-02-04T07:18:14;0.68;;;0.40;;
65613;SDS011;52283;49.292;10.572;2024-02-04T07:20:42;0.40;;;0.40;;
65613;SDS011;52283;49.292;10.572;2024-02-04T07:23:09;0.30;;;0.30;;
65613;SDS011;52283;49.292;10.572;2024-02-04T07:25:35;2.67;;;0.35;;
65613;SDS011;52283;49.292;10.572;2024-02-04T07:28:02;0.50;;;0.43;;
65613;SDS011;52283;49.292;10.572;2024-02-04T07:30:29;0.25;;;0.25;;
65613;SDS011;52283;49.292;10.572;2024-02-04T07:32:57;0.30;;;0.30;;
65613;SDS011;52283;49.292;10.572;2024-02-04T07:35:23;0.50;;;0.40;;
65613;SDS011;52283;49.292;10.572;2024-02-04T07:37:50;0.22;;;0.20;;
65613;SDS011;52283;49.292;10.572;2024-02-04T07:40:16;0.30;;;0.30;;
65613;SDS011;52283;49.292;10.572;2024-02-04T07:42:43;0.20;;;0.20;;
65613;SDS011;52283;49.292;10.572;2024-02-04T07:45:09;0.10;;;0.10;;
65613;SDS011;52283;49.292;10.572;2024-02-04T07:47:36;0.60;;;0.60;;
65613;SDS011;52283;49.292;10.572;2024-02-04T07:50:04;1.63;;;0.20;;
65613;SDS011;52283;49.292;10.572;2024-02-04T07:52:32;0.20;;;0.20;;
65613;SDS011;52283;49.292;10.572;2024-02-04T07:54:59;0.20;;;0.20;;
65613;SDS011;52283;49.292;10.572;2024-02-04T07:57:25;0.35;;;0.35;;
65613;SDS011;52283;49.292;10.572;2024-02-04T07:59:52;0.15;;;0.15;;
65613;SDS011;52283;49.292;10.572;2024-02-04T08:02:18;0.30;;;0.30;;
65613;SDS011;52283;49.292;10.572;2024-02-04T08:04:45;0.30;;;0.30;;
65613;SDS011;52283;49.292;10.572;2024-02-04T08:07:12;0.40;;;0.20;;
65613;SDS011;52283;49.292;10.572;2024-02-04T08:09:39;5.82;;;4.63;;
65613;SDS011;52283;49.292;10.572;2024-02-04T08:12:06;0.47;;;0.30;;
65613;SDS011;52283;49.292;10.572;2024-02-04T08:14:34;2.58;;;0.28;;
65613;SDS011;52283;49.292;10.572;2024-02-04T08:17:01;0.38;;;0.30;;
65613;SDS011;52283;49.292;10.572;2024-02-04T08:19:27;0.30;;;0.30;;
65613;SDS011;52283;49.292;10.572;2024-02-04T08:21:54;0.20;;;0.13;;
65613;SDS011;52283;49.292;10.572;2024-02-04T08:24:26;0.28;;;0.20;;
65613;SDS011;52283;49.292;10.572;2024-02-04T08:26:54;0.20;;;0.20;;
65613;SDS011;52283;49.292;10.572;2024-02-04T08:29:21;0.30;;;0.30;;
65613;SDS011;52283;49.292;10.572;2024-02-04T08:31:47;0.17;;;0.17;;
65613;SDS011;52283;49.292;10.572;2024-02-04T08:34:14;0.10;;;0.10;;
65613;SDS011;52283;49.292;10.572;2024-02-04T08:36:40;0.20;;;0.17;;
65613;SDS011;52283;49.292;10.572;2024-02-04T08:39:07;0.25;;;0.20;;
65613;SDS011;52283;49.292;10.572;2024-02-04T08:41:35;0.20;;;0.20;;
65613;SDS011;52283;49.292;10.572;2024-02-04T08:44:02;0.30;;;0.20;;
65613;SDS011;52283;49.292;10.572;2024-02-04T08:46:28;0.20;;;0.20;;
65613;SDS011;52283;49.292;10.572;2024-02-04T08:48:55;0.17;;;0.10;;
65613;SDS011;52283;49.292;10.572;2024-02-04T08:51:22;0.55;;;0.20;;
65613;SDS011;52283;49.292;10.572;2024-02-04T08:53:48;0.50;;;0.20;;
65613;SDS011;52283;49.292;10.572;2024-02-04T08:56:15;0.20;;;0.20;;
65613;SDS011;52283;49.292;10.572;2024-02-04T08:58:43;0.38;;;0.38;;
65613;SDS011;52283;49.292;10.572;2024-02-04T09:01:11;0.20;;;0.20;;
65613;SDS011;52283;49.292;10.572;2024-02-04T09:03:37;0.30;;;0.20;;
65613;SDS011;52283;49.292;10.572;2024-02-04T09:06:04;0.52;;;0.20;;
65613;SDS011;52283;49.292;10.572;2024-02-04T09:08:31;0.65;;;0.20;;
65613;SDS011;52283;49.292;10.572;2024-02-04T09:10:58;0.80;;;0.77;;
65613;SDS011;52283;49.292;10.572;2024-02-04T09:13:24;2.65;;;0.50;;
65613;SDS011;52283;49.292;10.572;2024-02-04T09:15:52;0.82;;;0.47;;
65613;SDS011;52283;49.292;10.572;2024-02-04T09:18:18;0.40;;;0.40;;
65613;SDS011;52283;49.292;10.572;2024-02-04T09:20:45;0.45;;;0.45;;
65613;SDS011;52283;49.292;10.572;2024-02-04T09:23:11;0.55;;;0.47;;
65613;SDS011;52283;49.292;10.572;2024-02-04T09:25:38;0.82;;;0.50;;
65613;SDS011;52283;49.292;10.572;2024-02-04T09:28:05;1.20;;;0.30;;
65613;SDS011;52283;49.292;10.572;2024-02-04T09:30:31;1.15;;;0.30;;
65613;SDS011;52283;49.292;10.572;2024-02-04T09:32:59;0.25;;;0.25;;
65613;SDS011;52283;49.292;10.572;2024-02-04T09:35:26;0.30;;;0.20;;
65613;SDS011;52283;49.292;10.572;2024-02-04T09:37:52;0.10;;;0.10;;
65613;SDS011;52283;49.292;10.572;2024-02-04T09:40:19;0.70;;;0.17;;
65613;SDS011;52283;49.292;10.572;2024-02-04T09:42:45;0.13;;;0.13;;
65613;SDS011;52283;49.292;10.572;2024-02-04T09:45:12;0.22;;;0.22;;
65613;SDS011;52283;49.292;10.572;2024-02-04T09:47:40;1.55;;;0.17;;
65613;SDS011;52283;49.292;10.572;2024-02-04T09:50:12;3.80;;;1.70;;
65613;SDS011;52283;49.292;10.572;2024-02-04T09:52:39;0.40;;;0.40;;
65613;SDS011;52283;49.292;10.572;2024-02-04T09:55:06;0.25;;;0.20;;
65613;SDS011;52283;49.292;10.572;2024-02-04T09:57:35;0.40;;;0.20;;
65613;SDS011;52283;49.292;10.572;2024-02-04T10:00:02;0.40;;;0.22;;
65613;SDS011;52283;49.292;10.572;2024-02-04T10:02:30;0.10;;;0.10;;
65613;SDS011;52283;49.292;10.572;2024-02-04T10:04:58;0.30;;;0.30;;
65613;SDS011;52283;49.292;10.572;2024-02-04T10:07:26;0.25;;;0.25;;
65613;SDS011;52283;49.292;10.572;2024-02-04T10:09:52;0.75;;;0.30;;
65613;SDS011;52283;49.292;10.572;2024-02-04T10:12:19;0.20;;;0.10;;
65613;SDS011;52283;49.292;10.572;2024-02-04T10:14:45;0.38;;;0.38;;
65613;SDS011;52283;49.292;10.572;2024-02-04T10:17:13;0.20;;;0.20;;
65613;SDS011;52283;49.292;10.572;2024-02-04T10:19:41;0.30;;;0.20;;
65613;SDS011;52283;49.292;10.572;2024-02-04T10:22:07;0.88;;;0.32;;
65613;SDS011;52283;49.292;10.572;2024-02-04T10:24:35;0.20;;;0.20;;
65613;SDS011;52283;49.292;10.572;2024-02-04T10:27:02;0.10;;;0.10;;
65613;SDS011;52283;49.292;10.572;2024-02-04T10:29:30;0.25;;;0.10;;
65613;SDS011;52283;49.292;10.572;2024-02-04T10:31:56;0.38;;;0.38;;
65613;SDS011;52283;49.292;10.572;2024-02-04T10:34:23;0.82;;;0.40;;
65613;SDS011;52283;49.292;10.572;2024-02-04T10:36:51;0.88;;;0.35;;
65613;SDS011;52283;49.292;10.572;2024-02-04T10:39:18;0.85;;;0.30;;
65613;SDS011;52283;49.292;10.572;2024-02-04T10:41:48;0.90;;;0.70;;
65613;SDS011;52283;49.292;10.572;2024-02-04T10:44:16;0.40;;;0.32;;
65613;SDS011;52283;49.292;10.572;2024-02-04T10:46:44;0.85;;;0.70;;
65613;SDS011;52283;49.292;10.572;2024-02-04T10:49:13;0.82;;;0.50;;
65613;SDS011;52283;49.292;10.572;2024-02-04T10:51:41;0.80;;;0.60;;
65613;SDS011;52283;49.292;10.572;2024-02-04T10:54:08;2.22;;;0.50;;
65613;SDS011;52283;49.292;10.572;2024-02-04T10:56:36;1.70;;;0.68;;
65613;SDS011;52283;49.292;10.572;2024-02-04T10:59:05;0.98;;;0.28;;
65613;SDS011;52283;49.292;10.572;2024-02-04T11:01:33;1.27;;;0.40;;
65613;SDS011;52283;49.292;10.572;2024-02-04T11:04:00;0.15;;;0.10;;
65613;SDS011;52283;49.292;10.572;2024-02-04T11:06:28;0.50;;;0.40;;
65613;SDS011;52283;49.292;10.572;2024-02-04T11:08:56;0.88;;;0.30;;
65613;SDS011;52283;49.292;10.572;2024-02-04T11:11:25;0.55;;;0.40;;
65613;SDS011;52283;49.292;10.572;2024-02-04T11:13:53;1.25;;;0.32;;
65613;SDS011;52283;49.292;10.572;2024-02-04T11:16:33;0.88;;;0.20;;
65613;SDS011;52283;49.292;10.572;2024-02-04T11:19:20;0.40;;;0.30;;
65613;SDS011;52283;49.292;10.572;2024-02-04T11:22:16;0.30;;;0.30;;
65613;SDS011;52283;49.292;10.572;2024-02-04T11:25:03;0.28;;;0.20;;
65613;SDS011;52283;49.292;10.572;2024-02-04T11:27:41;0.38;;;0.20;;
65613;SDS011;52283;49.292;10.572;2024-02-04T11:30:08;0.22;;;0.22;;
65613;SDS011;52283;49.292;10.572;2024-02-04T11:32:37;0.10;;;0.10;;
65613;SDS011;52283;49.292;10.572;2024-02-04T11:35:05;3.20;;;0.55;;
65613;SDS011;52283;49.292;10.572;2024-02-04T11:37:33;0.38;;;0.15;;
65613;SDS011;52283;49.292;10.572;2024-02-04T11:40:00;0.25;;;0.20;;
65613;SDS011;52283;49.292;10.572;2024-02-04T11:42:31;0.15;;;0.15;;
65613;SDS011;52283;49.292;10.572;2024-02-04T11:45:06;0.77;;;0.25;;
65613;SDS011;52283;49.292;10.572;2024-02-04T11:47:33;0.10;;;0.10;;
65613;SDS011;52283;49.292;10.572;2024-02-04T11:50:01;0.20;;;0.10;;
65613;SDS011;52283;49.292;10.572;2024-02-04T11:52:29;0.75;;;0.28;;
65613;SDS011;52283;49.292;10.572;2024-02-04T11:54:55;1.70;;;0.20;;
65613;SDS011;52283;49.292;10.572;2024-02-04T11:57:22;0.30;;;0.20;;
65613;SDS011;52283;49.292;10.572;2024-02-04T11:59:50;0.30;;;0.20;;
65613;SDS011;52283;49.292;10.572;2024-02-04T12:02:19;1.20;;;0.20;;
65613;SDS011;52283;49.292;10.572;2024-02-04T12:04:46;0.30;;;0.30;;
65613;SDS011;52283;49.292;10.572;2024-02-04T12:07:15;0.85;;;0.30;;
65613;SDS011;52283;49.292;10.572;2024-02-04T12:09:43;0.30;;;0.30;;
65613;SDS011;52283;49.292;10.572;2024-02-04T12:12:10;0.52;;;0.20;;
65613;SDS011;52283;49.292;10.572;2024-02-04T12:14:37;0.30;;;0.30;;
65613;SDS011;52283;49.292;10.572;2024-02-04T12:17:06;0.63;;;0.20;;
65613;SDS011;52283;49.292;10.572;2024-02-04T12:19:34;0.20;;;0.10;;
65613;SDS011;52283;49.292;10.572;2024-02-04T12:22:01;0.98;;;0.10;;
65613;SDS011;52283;49.292;10.572;2024-02-04T12:24:34;0.20;;;0.20;;
65613;SDS011;52283;49.292;10.572;2024-02-04T12:27:01;0.13;;;0.13;;
65613;SDS011;52283;49.292;10.572;2024-02-04T12:29:29;0.30;;;0.20;;
65613;SDS011;52283;49.292;10.572;2024-02-04T12:31:58;0.10;;;0.10;;
65613;SDS011;52283;49.292;10.572;2024-02-04T12:34:25;0.20;;;0.20;;
65613;SDS011;52283;49.292;10.572;2024-02-04T12:36:57;0.30;;;0.20;;
65613;SDS011;52283;49.292;10.572;2024-02-04T12:39:24;0.20;;;0.10;;
65613;SDS011;52283;49.292;10.572;2024-02-04T12:41:52;0.20;;;0.20;;
65613;SDS011;52283;49.292;10.572;2024-02-04T12:44:18;0.30;;;0.20;;
65613;SDS011;52283;49.292;10.572;2024-02-04T12:46:45;0.20;;;0.20;;
65613;SDS011;52283;49.292;10.572;2024-02-04T12:49:17;0.20;;;0.20;;
65613;SDS011;52283;49.292;10.572;2024-02-04T12:51:45;0.30;;;0.25;;
65613;SDS011;52283;49.292;10.572;2024-02-04T12:54:12;0.10;;;0.10;;
65613;SDS011;52283;49.292;10.572;2024-02-04T12:56:39;0.25;;;0.25;;
65613;SDS011;52283;49.292;10.572;2024-02-04T12:59:08;0.10;;;0.10;;
65613;SDS011;52283;49.292;10.572;2024-02-04T13:01:35;0.20;;;0.20;;
65613;SDS011;52283;49.292;10.572;2024-02-04T13:04:02;0.40;;;0.20;;
65613;SDS011;52283;49.292;10.572;2024-02-04T13:06:30;0.20;;;0.20;;
65613;SDS011;52283;49.292;10.572;2024-02-04T13:08:56;0.20;;;0.20;;
65613;SDS011;52283;49.292;10.572;2024-02-04T13:11:24;0.82;;;0.30;;
65613;SDS011;52283;49.292;10.572;2024-02-04T13:13:51;0.50;;;0.20;;
65613;SDS011;52283;49.292;10.572;2024-02-04T13:16:18;0.30;;;0.22;;
65613;SDS011;52283;49.292;10.572;2024-02-04T13:18:51;0.25;;;0.22;;
65613;SDS011;52283;49.292;10.572;2024-02-04T13:23:46;0.38;;;0.28;;
65613;SDS011;52283;49.292;10.572;2024-02-04T13:26:13;2.38;;;0.30;;
65613;SDS011;52283;49.292;10.572;2024-02-04T13:28:40;1.30;;;0.30;;
65613;SDS011;52283;49.292;10.572;2024-02-04T13:31:06;0.75;;;0.30;;
65613;SDS011;52283;49.292;10.572;2024-02-04T13:33:35;0.63;;;0.30;;
65613;SDS011;52283;49.292;10.572;2024-02-04T13:36:02;0.75;;;0.28;;
65613;SDS011;52283;49.292;10.572;2024-02-04T13:38:28;0.60;;;0.40;;
65613;SDS011;52283;49.292;10.572;2024-02-04T13:40:55;1.50;;;0.43;;
65613;SDS011;52283;49.292;10.572;2024-02-04T13:43:21;0.43;;;0.30;;
65613;SDS011;52283;49.292;10.572;2024-02-04T13:45:48;0.35;;;0.30;;
65613;SDS011;52283;49.292;10.572;2024-02-04T13:48:14;0.50;;;0.50;;
65613;SDS011;52283;49.292;10.572;2024-02-04T13:50:42;0.32;;;0.20;;
65613;SDS011;52283;49.292;10.572;2024-02-04T13:53:10;0.50;;;0.40;;
65613;SDS011;52283;49.292;10.572;2024-02-04T13:55:37;0.57;;;0.28;;
65613;SDS011;52283;49.292;10.572;2024-02-04T13:58:03;0.43;;;0.35;;
65613;SDS011;52283;49.292;10.572;2024-02-04T14:00:30;1.48;;;0.30;;
65613;SDS011;52283;49.292;10.572;2024-02-04T14:02:56;0.20;;;0.20;;
65613;SDS011;52283;49.292;10.572;2024-02-04T14:05:23;2.13;;;0.60;;
65613;SDS011;52283;49.292;10.572;2024-02-04T14:07:51;0.88;;;0.40;;
65613;SDS011;52283;49.292;10.572;2024-02-04T14:10:18;0.73;;;0.73;;
65613;SDS011;52283;49.292;10.572;2024-02-04T14:12:44;0.30;;;0.30;;
65613;SDS011;52283;49.292;10.572;2024-02-04T14:15:11;0.95;;;0.45;;
65613;SDS011;52283;49.292;10.572;2024-02-04T14:17:37;0.55;;;0.47;;
65613;SDS011;52283;49.292;10.572;2024-02-04T14:20:05;0.35;;;0.30;;
65613;SDS011;52283;49.292;10.572;2024-02-04T14:22:32;0.50;;;0.50;;
65613;SDS011;52283;49.292;10.572;2024-02-04T14:25:00;0.50;;;0.35;;
65613;SDS011;52283;49.292;10.572;2024-02-04T14:27:27;0.30;;;0.30;;
65613;SDS011;52283;49.292;10.572;2024-02-04T14:29:54;0.40;;;0.40;;
65613;SDS011;52283;49.292;10.572;2024-02-04T14:32:21;0.47;;;0.40;;
65613;SDS011;52283;49.292;10.572;2024-02-04T14:34:47;0.40;;;0.40;;
65613;SDS011;52283;49.292;10.572;2024-02-04T14:37:14;0.50;;;0.50;;
65613;SDS011;52283;49.292;10.572;2024-02-04T14:39:41;0.40;;;0.40;;